Tiempo atmosférico en la estación meteorológica de Bilbao Aeropuerto, Bizkaia (42 m.)



Fecha
DESCASC
Temp. máxima en grados centígrados (hora)
DESCASC
Temp. mínima en grados centígrados (hora)
DESCASC
Temp. media en grados centígrados
DESCASC
Racha de viento máxima en m/sg (hora)
DESCASC
Velocidad máxima media en intervalos de 10 minutos(hora)
DESCASC
Precipitaciones diarias en mm
DESCASC
Precipitaciones de 00:00 a 06:00 en mm
DESCASC
Precipitaciones de 06:00 a 12:00 en mm
DESCASC
Precipitaciones de 12:00 a 18:00 en mm
DESCASC
Precipitaciones de 18:00 a 24:00 en mm
DESCASC
25-04-2019 20.1 (16:20) 11.1 (03:30) 15.6 16.11 (13:20) 9.17 (20:50) 0 0 0 0 0
24-04-2019 17.3 (14:40) 7.5 (05:10) 12.4 17.5 (14:20) 9.72 (14:20) 2.4 0.2 0 0.6 1.6
23-04-2019 -- (--) -- (--) -- -- (--) -- (--) -- 0 -- 4.1 2.4
22-04-2019 23.7 (16:40) 10.6 (00:00) 17.2 10.28 (16:50) 6.39 (23:59) 0 0 0 0 0
21-04-2019 16.8 (13:40) 7.4 (00:00) 12.1 8.89 (14:20) 6.39 (15:00) 0 0 0 0 0
20-04-2019 18 (13:40) 8.3 (00:00) 13.2 8.89 (14:20) 6.39 (14:30) 0 0 0 0 0
19-04-2019 21.1 (18:20) 12 (00:00) 16.6 8.89 (07:20) 5 (15:20) 0 0 0 0 0
18-04-2019 21.1 (00:10) 12.5 (00:00) 16.8 17.5 (04:20) 10.56 (04:30) 1.6 0 0 0.9 0.7
17-04-2019 23.7 (15:50) 11.7 (00:00) 17.7 20.56 (07:40) 12.5 (07:40) 0 0 0 0 0
16-04-2019 20.7 (16:30) 8.2 (00:00) 14.5 10.83 (18:50) 6.39 (18:40) 0 0 0 0 0
15-04-2019 26 (15:40) 12.3 (00:00) 19.2 20.56 (16:00) 13.33 (16:30) 11.4 0 0 9.2 2.2
14-04-2019 20.6 (18:30) 10.2 (00:00) 15.4 6.11 (16:00) 4.72 (16:00) 0 0 0 0 0
13-04-2019 23.3 (16:00) 2.6 (00:00) 12.9 8.33 (18:40) 6.11 (18:40) 0 0 0 0 0
12-04-2019 15.9 (15:50) 6.6 (00:00) 11.2 7.22 (13:50) 4.17 (17:20) -- 0 -- -- 0
11-04-2019 12.9 (17:20) 7.6 (00:00) 10.2 11.39 (14:30) 7.78 (14:30) 8 3.8 1.7 2.5 0
10-04-2019 15.1 (14:40) 6 (00:00) 10.6 9.72 (20:00) 7.5 (19:50) 3.6 0 1.7 0 1.9
09-04-2019 18.6 (14:10) 5.4 (00:00) 12 13.89 (18:00) 8.61 (18:00) 13.4 0 0 1.8 11.6
08-04-2019 14.9 (18:40) 8 (00:00) 11.4 9.72 (01:10) 5.56 (10:40) 0.1 0 0.1 0 0
07-04-2019 16.9 (17:20) 7.1 (00:00) 12 11.39 (23:10) 6.67 (23:20) 0.2 0.2 0 0 0
06-04-2019 17.7 (16:10) 5.8 (00:00) 11.8 12.5 (12:30) 6.94 (12:30) 5.7 0 0 0 5.7
05-04-2019 16 (14:40) 7.8 (00:00) 11.9 9.72 (01:00) 6.11 (18:00) 1.6 0 0 0 1.6
04-04-2019 17.3 (17:40) 4.5 (00:00) 10.9 12.5 (20:20) 7.22 (20:10) 5 3.4 1.6 0 0
03-04-2019 10.1 (00:40) 3.4 (00:00) 6.8 17.5 (13:30) 11.67 (13:30) 8 0.6 0.8 3.8 2.8
02-04-2019 15.7 (13:40) 7.4 (00:00) 11.5 11.67 (15:30) 8.06 (18:00) 0.7 0 0 0 0.7
01-04-2019 17.6 (16:50) 10.6 (00:00) 14.1 8.89 (04:20) 6.39 (04:20) 0 0 0 0 0
31-03-2019 22.7 (15:10) 6.1 (00:00) 14.4 11.67 (15:20) 6.39 (16:50) 0 0 0 0 0
30-03-2019 23.9 (16:00) 8.7 (00:00) 16.3 11.67 (01:50) 6.67 (08:00) 0 0 0 0 0
29-03-2019 23 (15:30) 3.4 (00:00) 13.2 8.33 (10:30) 6.11 (18:20) 0 0 0 0 0
28-03-2019 15.5 (15:10) 3.5 (00:00) 9.5 9.17 (15:10) 5.28 (13:20) 0 0 0 0 0
27-03-2019 15.2 (13:30) 2.3 (00:00) 8.7 9.17 (14:00) 5.83 (14:20) 0 0 0 0 0

Gráficas

Temp. máximas Temp. mínimas Temp. medias Precipitaciones Rachas de viento máximas Velocidades máximas media en intervalos de 10 minutos

Datos horarios

Fecha y hora oficial Temperatura (ºC) Velocidad del viento (km/h) Dirección del viento Racha (km/h) Dirección de racha Precipitación (mm) Presión (hPa) Tendencia (hPa) Humedad (%)
2019-04-25 23:00:00 11.9 2 Sudeste 18 Norte 0 1007.8 5.2 65
2019-04-25 22:00:00 12.5 18 Noroeste 50 Norte 0 1006.3 4.3 61
2019-04-25 21:00:00 16.4 32 Oeste 58 Oeste 0 1004.1 2.2 40
2019-04-25 20:00:00 17.4 23 Sudoeste 54 Oeste 0 1002.6 0.3 37
2019-04-25 19:00:00 19.1 27 Sudoeste 50 Sudoeste 0 1002 0.3 31
2019-04-25 18:00:00 19.2 18 Sudoeste 58 Sudoeste 0 1001.9 0.1 32
2019-04-25 17:00:00 18.5 28 Sudoeste 55 Sudoeste 0 1002.3 0.4 31
2019-04-25 16:00:00 19.1 24 Oeste 50 Oeste 0 1001.7 -0.4 29
2019-04-25 15:00:00 17.9 28 Oeste 50 Sudoeste 0 1001.8 0.4 32
2019-04-25 14:00:00 16.9 25 Oeste 58 Oeste 0 1001.9 1.1 36
2019-04-25 13:00:00 16 20 Sudoeste 54 Sudoeste 0 1002.1 1.9 41
2019-04-25 12:00:00 15.1 13 Sur 28 Sudoeste 0 1001.4 1.9 44
2019-04-25 11:00:00 14.2 9 Sur 35 Sudoeste 0 1000.8 2.4 46
2019-04-25 10:00:00 13.5 10 Sudoeste 33 Sudoeste 0 1000.2 2.6 47
2019-04-25 09:00:00 12.9 8 Oeste 46 Oeste 0 999.5 2.4 47
2019-04-25 08:00:00 13.2 21 Sudoeste 50 Oeste 0 998.4 1.5 46
2019-04-25 07:00:00 13.2 23 Sudoeste 39 Sudoeste 0 997.6 1.1 48
2019-04-25 06:00:00 13.4 16 Sudoeste 41 Oeste 0 997.1 0.3 49
2019-04-25 05:00:00 13.2 13 Sudoeste 24 Sur 0 996.9 0 57
2019-04-25 04:00:00 13 10 Sur 26 Sudoeste 0 996.5 1 62
2019-04-25 03:00:00 12.1 5 Este 15 Oeste 0 996.8 1.1 80
2019-04-25 02:00:00 14.2 8 Oeste 21 Oeste 0 996.9 1.6 60
2019-04-25 01:00:00 15.2 11 Oeste 24 Oeste 0 995.5 1.1 54
2019-04-25 00:00:00 14.5 11 Oeste 26 Sudoeste 0 995.7 2.8 60
2019-04-24 23:00:00 15.3 10 Oeste 30 Sudoeste 0 995.3 4.1 58
2019-04-24 22:00:00 15.3 13 Sudoeste 45 Sur 0 994.4 2.3 60
2019-04-24 21:00:00 14.5 21 Sur 37 Sur 0 992.9 1 68
2019-04-24 20:00:00 13 20 Sudeste 35 Sudeste 1 991.2 -1.1 87
2019-04-24 19:00:00 14 10 Sur 32 Sudeste 0.6 992.1 -0.1 84
2019-04-24 18:00:00 14.9 22 Sudeste 37 Sudeste 0.6 991.9 -0.5 75
2019-04-24 17:00:00 16.1 12 Sur 39 Sudoeste 0 992.3 0 62
2019-04-24 16:00:00 16.3 20 Sur 52 Sur 0 992.2 -1 53
2019-04-24 15:00:00 16.7 26 Sur 63 Sur 0 992.4 -1.6 48
2019-04-24 14:00:00 15.5 21 Sur 55 Sudoeste 0 992.3 -1.6 48
2019-04-24 13:00:00 14.4 21 Sur 46 Sudeste 0 993.2 -1 47
2019-04-24 12:00:00 12.6 12 Sur 52 Sur 0 994 -0.6 51
2019-04-24 11:00:00 12.5 17 Sur 42 Sur 0 993.9 -0.9 49
2019-04-24 10:00:00 11.7 19 Sur 33 Sur 0 994.2 -0.5 54
2019-04-24 09:00:00 11.3 22 Sur 33 Sur 0 994.6 -0.3 55
2019-04-24 08:00:00 9.4 13 Sur 21 Sur 0 994.8 -0.7 65
2019-04-24 07:00:00 10 8 Sur 24 Oeste 0 994.7 -0.9 64
2019-04-24 06:00:00 9.3 15 Sudoeste 24 Sudoeste 0 994.9 -0.9 75
2019-04-24 05:00:00 7.8 10 Sudeste 21 Sudeste 0 995.5 -0.4 92
2019-04-24 04:00:00 8.6 12 Este 18 Este 0 995.6 0.1 91
2019-04-24 03:00:00 9.3 6 Sudeste 13 Este 0.2 995.8 0.2 85
2019-04-24 02:00:00 9.4 4 Este 13 Sudeste 0 995.9 0.8 96
2019-04-24 01:00:00 9.2 9 Sudeste 13 Sudeste 0 995.5 2 96
2019-04-24 00:00:00 9.3 3 Noroeste 18 Noroeste 1.3 995.6 4 94
2019-04-23 23:00:00 9.5 17 Noroeste 55 Noroeste 1.1 995.1 4.4 92
2019-04-23 22:00:00 12.4 10 Noroeste 30 Noroeste 0 993.5 2.8 88
2019-04-23 21:00:00 12.7 13 Noroeste 17 Noroeste 0 991.6 1.2 92
2019-04-23 20:00:00 13.5 6 Sur 11 Sur 0 990.7 0.1 86
2019-04-23 19:00:00 14.1 3 Noroeste 17 Noroeste 0 990.7 -0.8 82
2019-04-23 18:00:00 14 5 Norte 18 Norte 0 990.4 0.5 78
2019-04-23 17:00:00 13 9 Sudeste 15 Sudeste 0.5 990.6 1.1 84
2019-04-23 16:00:00 12.7 3 Oeste 32 Oeste 3.5 991.5 1.9 78
2019-04-23 15:00:00 16.7 18 Oeste 32 Oeste 0.1 989.9 0.3 54
2019-04-23 14:00:00 18 15 Oeste 32 Oeste 0 989.5 0.2 50
2019-04-23 13:00:00 18.1 11 Oeste 18 Oeste 0 989.6 0.4 56
2019-04-23 12:00:00 18.1 14 Sudoeste 22 Sudoeste 0 989.6 0.4 56
2019-04-23 11:00:00 16.9 11 Sur 22 Sur 0 989.3 0.3 61
2019-04-23 10:00:00 16 2 Sur 9 Sur 0 989.2 -- 62
2019-04-23 09:00:00 15.4 5 Sudeste 15 Sudeste 0 989.2 0.2 65
2019-04-23 08:00:00 16.3 12 Sur -- -- -- 989 0.3 57
2019-04-23 07:00:00 -- -- -- -- -- -- -- -- --
2019-04-23 06:00:00 16.1 11 Sur 26 Sur 0 989 -0.1 56
2019-04-23 05:00:00 16.6 11 Sur 28 Sur 0 988.7 -0.9 53
2019-04-23 04:00:00 17.1 13 Sur 24 Sur 0 988.6 -1.3 51
2019-04-23 03:00:00 17.4 12 Sur 26 Sur 0 989.1 -1.2 50
2019-04-23 02:00:00 17.5 14 Sur 32 Sur 0 989.6 -1.2 50
2019-04-23 01:00:00 17.6 16 Sur 35 Sudeste 0 989.9 -1.1 50
2019-04-23 00:00:00 18.2 23 Sur 35 Sudeste 0 990.3 -0.9 48
2019-04-22 23:00:00 16.9 7 Sudeste 13 Este 0 990.8 -0.8 58
2019-04-22 22:00:00 18.9 7 Sudeste 24 Sur 0 991 -0.7 48
2019-04-22 21:00:00 20.4 13 Sudeste 24 Sudoeste 0 991.2 -0.6 43
2019-04-22 20:00:00 21.7 12 Sudoeste 28 Oeste 0 991.6 -0.6 38
2019-04-22 19:00:00 22.6 13 Oeste 30 Sudoeste 0 991.7 -1.4 38
2019-04-22 18:00:00 22.7 17 Sur 32 Sudoeste 0 991.8 -2.3 37
2019-04-22 17:00:00 23.2 19 Sudoeste 37 Sur 0 992.2 -3.1 36
2019-04-22 16:00:00 22.9 13 Sur 30 Oeste 0 993.1 -3.6 40
2019-04-22 15:00:00 22.1 5 Oeste 15 Sudeste 0 994.1 -3.5 43
2019-04-22 14:00:00 21 6 Sur 15 Sur 0 995.3 -3.3 46
2019-04-22 13:00:00 19.5 5 Este 17 Este 0 996.7 -2.7 54
2019-04-22 12:00:00 18.2 5 Este 13 Este 0 997.6 -2.6 59
2019-04-22 11:00:00 16.5 7 Este 13 Este 0 998.6 -2 69
2019-04-22 10:00:00 14.6 5 Sudeste 11 Este 0 999.4 -1.5 79
2019-04-22 09:00:00 11.8 7 Sudeste 13 Este 0 1000.2 -1.5 93
2019-04-22 08:00:00 10.6 6 Sudeste 9 Sudeste 0 1000.6 -2.3 95
2019-04-22 07:00:00 10.8 3 Sur 8 Este 0 1000.9 -2.8 94
2019-04-22 06:00:00 10.8 5 Este 9 Este 0 1001.7 -2.8 94
2019-04-22 05:00:00 10.8 6 Sudeste 8 Este 0 1002.9 -2.8 94
2019-04-22 04:00:00 10.8 4 Este 8 Sudeste 0 1003.7 -2.7 94
2019-04-22 03:00:00 10.7 4 Sudeste 8 Este 0 1004.5 -2.5 94
2019-04-22 02:00:00 10.8 6 Este 8 Este 0 1005.7 -1.8 93
2019-04-22 01:00:00 11.3 5 Este 8 Este 0 1006.4 -1.4 91
2019-04-22 00:00:00 11.6 0 Calma -- -- 0 1007 -0.9 89
2019-04-21 23:00:00 12.2 0 Calma 8 Oeste 0 1007.5 -0.5 85
2019-04-21 22:00:00 13.2 3 Oeste 11 Noroeste 0 1007.8 -0.3 81
2019-04-21 21:00:00 13.6 8 Oeste 15 Oeste 0 1007.9 -0.6 77
2019-04-21 20:00:00 13.8 12 Noroeste 18 Oeste 0 1008 -0.8 79
2019-04-21 19:00:00 14.3 12 Noroeste 17 Oeste 0 1008.1 -1.3 79
2019-04-21 18:00:00 15.3 13 Noroeste 17 Noroeste 0 1008.5 -1.2 75
2019-04-21 17:00:00 15.5 4 Norte 13 Norte 0 1008.8 -1.5 70
2019-04-21 16:00:00 15 9 Norte 26 Noroeste 0 1009.4 -1.9 71
2019-04-21 15:00:00 14.8 23 Noroeste 32 Noroeste 0 1009.7 -2 83
2019-04-21 14:00:00 16.4 19 Noroeste 30 Noroeste 0 1010.3 -2 74
2019-04-21 13:00:00 15.3 13 Noroeste 21 Noroeste 0 1011.3 -1.3 78
2019-04-21 12:00:00 14.9 11 Oeste 18 Oeste 0 1011.7 -1.4 73
2019-04-21 11:00:00 12.2 5 Sudeste 13 Este 0 1012.3 -0.8 80
2019-04-21 10:00:00 9.3 5 Este 13 Sudeste 0 1012.6 -0.2 90
2019-04-21 09:00:00 7.9 4 Este 9 Este 0 1013.1 0.3 92
2019-04-21 08:00:00 7.6 8 Este 11 Este 0 1013.1 -0.3 92
2019-04-21 07:00:00 7.7 6 Este 15 Este 0 1012.8 -1.2 93
2019-04-21 06:00:00 7.8 8 Este 11 Este 0 1012.8 -2.1 91
2019-04-21 05:00:00 8.5 5 Este 15 Este 0 1013.4 -1.9 92
2019-04-21 04:00:00 8.5 5 Sudeste 9 Este 0 1014 -1.8 93
2019-04-21 03:00:00 9.4 4 Sur 15 Este 0 1014.9 -1.4 91
2019-04-21 02:00:00 9.5 5 Este 11 Este 0 1015.3 -1.2 92
2019-04-21 01:00:00 10.5 7 Este 11 Sudeste 0 1015.8 -0.6 89
2019-04-21 00:00:00 11.5 7 Este 11 Este 0 1016.3 0.4 87
2019-04-20 23:00:00 13.1 3 Sudeste 5 Noroeste 0 1016.5 0.8 83
2019-04-20 22:00:00 13.7 4 Noroeste 9 Oeste 0 1016.4 0.5 82
2019-04-20 21:00:00 13.8 6 Noroeste 21 Noroeste 0 1015.9 -0.2 77
2019-04-20 20:00:00 15.7 15 Noroeste 22 Noroeste 0 1015.7 -0.5 66
2019-04-20 19:00:00 16.5 16 Noroeste 30 Noroeste 0 1015.9 -0.6 70
2019-04-20 18:00:00 16.7 18 Oeste 26 Noroeste 0 1016.1 -0.9 73
2019-04-20 17:00:00 16.9 17 Oeste 30 Oeste 0 1016.2 -1.3 70
2019-04-20 16:00:00 17.6 17 Noroeste 30 Noroeste 0 1016.5 -1.7 65
2019-04-20 15:00:00 17.2 19 Noroeste 32 Noroeste 0 1017 -1.7 64
2019-04-20 14:00:00 17.6 19 Noroeste 30 Noroeste 0 1017.5 -1.5 64
2019-04-20 13:00:00 17.2 18 Noroeste 30 Noroeste 0 1018.2 -1 71
2019-04-20 12:00:00 16.5 21 Noroeste 30 Noroeste 0 1018.7 -0.6 68
2019-04-20 11:00:00 15.8 15 Noroeste 24 Noroeste 0 1019 -0.3 75
2019-04-20 10:00:00 13.2 0 Calma 9 Este 0 1019.2 0.4 84
2019-04-20 09:00:00 10.4 7 Este 11 Este 0 1019.3 0.4 92
2019-04-20 08:00:00 8.5 3 Sudeste 11 Este 0 1019.3 0.2 96
2019-04-20 07:00:00 8.6 7 Sudeste 11 Sudeste 0 1018.8 -0.5 95
2019-04-20 06:00:00 9.1 9 Este 11 Este 0 1018.9 -0.7 95
2019-04-20 05:00:00 9.5 6 Este 11 Este 0 1019.1 -0.7 95
2019-04-20 04:00:00 10 6 Sudeste 9 Este 0 1019.3 -0.8 94
2019-04-20 03:00:00 9.9 9 Este 11 Este 0 1019.6 -0.6 94
2019-04-20 02:00:00 10.3 8 Sudeste 11 Sudeste 0 1019.8 0 93
2019-04-20 01:00:00 11.5 3 Nordeste 8 Nordeste 0 1020.1 1.3 92
2019-04-20 00:00:00 12.1 0 Calma 9 Norte 0 1020.2 2.3 89
2019-04-19 23:00:00 13.3 3 Nordeste 11 Nordeste 0 1019.8 2.5 89
2019-04-19 22:00:00 14.2 0 Calma 11 Oeste 0 1018.8 1.9 84
2019-04-19 21:00:00 16 9 Oeste 18 Noroeste 0 1017.9 1.5 75
2019-04-19 20:00:00 16.9 11 Oeste 21 Oeste 0 1017.3 1 75
2019-04-19 19:00:00 19.4 9 Oeste 21 Norte 0 1016.9 0.6 67
2019-04-19 18:00:00 20.9 7 Noroeste 17 Noroeste 0 1016.4 0.4 62
2019-04-19 17:00:00 20.6 5 Noroeste 21 Este 0 1016.3 0.5 56
2019-04-19 16:00:00 20.2 9 Este 28 Nordeste 0 1016.3 0 54
2019-04-19 15:00:00 20.7 0 Calma 9 Sudeste 0 1016 -0.1 56
2019-04-19 14:00:00 20.1 2 Sudeste 13 Sudeste 0 1015.8 0.3 57
2019-04-19 13:00:00 18.8 2 Sur 8 Sur 0 1016.3 1.2 58
2019-04-19 12:00:00 17.4 3 Sudeste 11 Nordeste 0 1016.1 1.7 64
2019-04-19 11:00:00 15.9 5 Sudeste 17 Este 0 1015.5 1.8 78
2019-04-19 10:00:00 13.3 10 Este 13 Este 0 1015.1 2.2 90
2019-04-19 09:00:00 12.5 0 Calma 11 Sudeste 0 1014.4 1.7 91
2019-04-19 08:00:00 12.8 10 Este 32 Sudeste 0 1013.7 0.7 88
2019-04-19 07:00:00 12.4 5 Norte 18 Oeste 0 1012.9 0.4 96
2019-04-19 06:00:00 12.2 0 Calma 9 Este 0 1012.7 0.1 98
2019-04-19 05:00:00 12.4 6 Este 9 Este 0 1013 0.5 98
2019-04-19 04:00:00 12.3 5 Oeste 11 Norte 0 1012.5 -0.7 98
2019-04-19 03:00:00 12.3 5 Norte 11 Norte 0 1012.6 0 98
2019-04-19 02:00:00 12.1 4 Oeste 8 Oeste 0 1012.5 -0.1 98
2019-04-19 01:00:00 12.2 0 Calma 8 Sur 0 1013.2 1.1 98
2019-04-19 00:00:00 12.7 2 Sudeste 8 Nordeste 0 1012.6 0.8 97
2019-04-18 23:00:00 12.7 3 Sur 11 Noroeste 0.1 1012.6 1.3 97
2019-04-18 22:00:00 13.1 5 Noroeste 11 Noroeste 0.3 1012.1 1.1 97
2019-04-18 21:00:00 13.4 5 Oeste 9 Noroeste 0.1 1011.8 1.5 95
2019-04-18 20:00:00 13.8 8 Oeste 18 Norte 0.2 1011.3 0.9 91
2019-04-18 19:00:00 14.6 10 Nordeste 30 Este 0 1011 0.5 84
2019-04-18 18:00:00 15.2 14 Nordeste 24 Este 0 1010.3 0.1 80
2019-04-18 17:00:00 15 13 Nordeste 30 Nordeste 0 1010.4 0.2 85
2019-04-18 16:00:00 15.1 14 Nordeste 21 Nordeste 0 1010.5 -0.5 87
2019-04-18 15:00:00 14 5 Noroeste 15 Oeste 0 1010.2 -0.8 93
2019-04-18 14:00:00 13.8 8 Oeste 24 Noroeste 0.5 1010.2 0.2 92
2019-04-18 13:00:00 14.8 5 Sur 30 Sudoeste 0.4 1011 1.1 78
2019-04-18 12:00:00 15.3 2 Sudoeste 11 Oeste 0 1011 2 74
2019-04-18 11:00:00 15.7 4 Sudoeste 21 Sur 0 1010 1.5 67
2019-04-18 10:00:00 16.2 8 Sur 26 Sur 0 1009.9 3 65
2019-04-18 09:00:00 16.8 13 Sur 24 Sur 0 1009 2.6 61
2019-04-18 08:00:00 16.3 3 Noroeste 26 Sudoeste 0 1008.5 2.2 61
2019-04-18 07:00:00 16.8 17 Sur 45 Sudeste 0 1006.9 1.1 57
2019-04-18 06:00:00 17.7 29 Sudeste 55 Sudeste 0 1006.4 0.7 51
2019-04-18 05:00:00 18.1 33 Sudeste 63 Sur 0 1006.3 0.4 49
2019-04-18 04:00:00 18.4 36 Sur 59 Sudeste 0 1005.8 -1.6 47
2019-04-18 03:00:00 19.2 30 Sur 50 Sudeste 0 1005.7 -0.6 45
2019-04-18 02:00:00 19.8 19 Sur 42 Sur 0 1005.9 0.6 45
2019-04-18 01:00:00 20.7 22 Sur 42 Sur 0 1007.4 2.8 43
2019-04-18 00:00:00 20.9 18 Sur 33 Sur 0 1006.3 3.3 45
2019-04-17 23:00:00 21.7 13 Sudeste 33 Sudeste 0 1005.3 2.3 44
2019-04-17 22:00:00 22.1 24 Sur 58 Sudeste 0 1004.6 1.9 41
2019-04-17 21:00:00 22.3 33 Sur 59 Sur 0 1003 0.2 41
2019-04-17 20:00:00 22.7 26 Sur 48 Sur 0 1003 -0.4 42
2019-04-17 19:00:00 22.7 20 Sur 46 Sudeste 0 1002.7 -1.3 43
2019-04-17 18:00:00 21.7 32 Sudeste 46 Sudeste 0 1002.8 -1.6 47
2019-04-17 17:00:00 22.1 27 Sudeste 39 Sudeste 0 1003.4 -1.5 45
2019-04-17 16:00:00 23.2 18 Sudeste 32 Sur 0 1004 -1.8 45
2019-04-17 15:00:00 21.8 23 Sudeste 37 Sudeste 0 1004.4 -1.9 47
2019-04-17 14:00:00 20.9 19 Sudeste 32 Sudeste 0 1004.9 -1.7 51
2019-04-17 13:00:00 17.9 15 Sudeste 32 Sudeste 0 1005.8 -0.2 57
2019-04-17 12:00:00 17 13 Sudeste 37 Sur 0 1006.3 0.2 56
2019-04-17 11:00:00 16.6 22 Sudeste 61 Sur 0 1006.6 0.8 56
2019-04-17 10:00:00 16.5 32 Sur 65 Sur 0 1006 0.7 54
2019-04-17 09:00:00 16.3 41 Sudeste 63 Sudeste 0 1006.1 0.5 55
2019-04-17 08:00:00 16.6 36 Sur 74 Sur 0 1005.8 -0.2 53
2019-04-17 07:00:00 17.3 41 Sudeste 65 Sur 0 1005.3 -1.3 50
2019-04-17 06:00:00 18.1 30 Sur 52 Sudeste 0 1005.6 -2 46
2019-04-17 05:00:00 18.1 29 Sudeste 55 Sur 0 1006 -2.5 48
2019-04-17 04:00:00 18.8 34 Sur 58 Sur 0 1006.6 -2.2 47
2019-04-17 03:00:00 18.8 24 Sur 48 Sur 0 1007.6 -1.9 49
2019-04-17 02:00:00 15.8 16 Sudeste 35 Sur 0 1008.5 -1.5 63
2019-04-17 01:00:00 11.9 8 Sudeste 11 Sudeste 0 1008.8 -1.6 86
2019-04-17 00:00:00 12.8 4 Sudeste 13 Este 0 1009.5 -0.8 84
2019-04-16 23:00:00 13.6 10 Este 18 Nordeste 0 1010 -0.3 79
2019-04-16 22:00:00 15 7 Sudeste 21 Sudeste 0 1010.4 0.1 72
2019-04-16 21:00:00 15.8 13 Sudeste 30 Este 0 1010.3 -0.4 68
2019-04-16 20:00:00 17 19 Este 35 Este 0 1010.3 -1 64
2019-04-16 19:00:00 18.3 21 Este 39 Este 0 1010.3 -2 60
2019-04-16 18:00:00 19.4 18 Este 32 Este 0 1010.7 -2.3 58
2019-04-16 17:00:00 20.2 19 Este 37 Nordeste 0 1011.3 -2.5 56
2019-04-16 16:00:00 20.3 17 Este 24 Este 0 1012.3 -2.5 54
2019-04-16 15:00:00 20 12 Este 35 Este 0 1013 -2.3 51
2019-04-16 14:00:00 18.5 11 Este 22 Este 0 1013.8 -2 49
2019-04-16 13:00:00 17.7 10 Este 28 Sudeste 0 1014.8 -1.2 57
2019-04-16 12:00:00 16.7 12 Este 18 Este 0 1015.3 -0.7 60
2019-04-16 11:00:00 14.2 9 Sudeste 21 Este 0 1015.8 -0.2 81
2019-04-16 10:00:00 11.4 12 Sudeste 17 Sudeste 0 1016 1.1 94
2019-04-16 09:00:00 9.6 6 Sudeste 13 Este 0 1016 1 100
2019-04-16 08:00:00 8.8 4 Este 9 Este 0 1016 1 99
2019-04-16 07:00:00 8.6 3 Sudeste 15 Este 0 1014.9 0.2 99
2019-04-16 06:00:00 8.5 5 Este 13 Este 0 1015 0.4 99
2019-04-16 05:00:00 8.5 9 Este 13 Sudeste 0 1015 0.6 98
2019-04-16 04:00:00 9.1 9 Este 13 Este 0 1014.7 0.3 97
2019-04-16 03:00:00 10 8 Este 11 Sudeste 0 1014.6 0.9 97
2019-04-16 02:00:00 11.1 3 Este 15 Sudeste 0 1014.4 1.5 95
2019-04-16 01:00:00 11.9 7 Sudeste 11 Sudeste 0 1014.4 2.3 95
2019-04-16 00:00:00 12.8 0 Calma 13 Oeste 0 1013.7 3.2 90
2019-04-15 23:00:00 12.9 7 Oeste 24 Noroeste 0 1012.9 3.3 88
2019-04-15 22:00:00 12.9 16 Noroeste 24 Noroeste 0.3 1012.1 3.1 93
2019-04-15 21:00:00 13.2 0 Calma 18 Noroeste 0.7 1010.5 3.3 91
2019-04-15 20:00:00 13.5 15 Noroeste 32 Noroeste 0 1009.6 4.3 87
2019-04-15 19:00:00 13.5 19 Noroeste 48 Noroeste 1.2 1009 5.6 89
2019-04-15 18:00:00 14.2 28 Noroeste 42 Noroeste 3.9 1007.2 5.1 95
2019-04-15 17:00:00 14.5 35 Noroeste 68 Noroeste 5.3 1005.3 2.4 95
2019-04-15 16:00:00 18.8 45 Noroeste 74 Noroeste 0 1003.4 0.2 69
2019-04-15 15:00:00 22.6 13 Este 22 Este 0 1002.1 -1.5 57
2019-04-15 14:00:00 22 10 Sudeste 22 Sudeste 0 1002.9 -1.5 56
2019-04-15 13:00:00 21.7 12 Sur 30 Sudeste 0 1003.2 -2.1 54
2019-04-15 12:00:00 21.7 14 Sur 28 Sur 0 1003.6 -2.5 54
2019-04-15 11:00:00 21.1 10 Este 22 Este 0 1004.4 -1.8 56
2019-04-15 10:00:00 18.1 9 Este 21 Este 0 1005.3 -1.2 70
2019-04-15 09:00:00 15.3 14 Sudeste 22 Sudeste 0 1006.1 -1 80
2019-04-15 08:00:00 13.7 17 Sudeste 22 Sudeste 0 1006.2 -1.8 86
2019-04-15 07:00:00 13.5 14 Sudeste 22 Sudeste 0 1006.5 -2 87
2019-04-15 06:00:00 12.6 10 Este 18 Este 0 1007.1 -2 92
2019-04-15 05:00:00 12.8 4 Sudoeste 15 Este 0 1008 -2.1 89
2019-04-15 04:00:00 13.8 6 Sudeste 13 Sur 0 1008.5 -2.5 88
2019-04-15 03:00:00 13.3 12 Sudeste 17 Sudeste 0 1009.1 -2.3 92
2019-04-15 02:00:00 13.1 4 Sur 15 Sudeste 0 1010.1 -1.6 93
2019-04-15 01:00:00 13.3 5 Sudeste 11 Sudeste 0 1011 -0.7 91
2019-04-15 00:00:00 14.1 5 Sudeste 15 Este 0 1011.4 0 87
2019-04-14 23:00:00 15.4 8 Este 15 Este 0 1011.7 0.6 82
2019-04-14 22:00:00 16.5 6 Este 15 Este 0 1011.7 0.5 78
2019-04-14 21:00:00 17.8 10 Este 18 Este 0 1011.4 -0.1 72
2019-04-14 20:00:00 19.5 9 Nordeste 18 Este 0 1011.1 -1.2 65
2019-04-14 19:00:00 20.2 11 Nordeste 15 Nordeste 0 1011.2 -1.7 56
2019-04-14 18:00:00 20.2 6 Sudeste 13 Sudeste 0 1011.5 -1 48
2019-04-14 17:00:00 19.3 7 Norte 22 Noroeste 0 1012.3 -0.5 49
2019-04-14 16:00:00 18.5 17 Noroeste 22 Noroeste 0 1012.9 0.6 53
2019-04-14 15:00:00 19.5 10 Oeste 18 Noroeste 0 1012.5 0 47
2019-04-14 14:00:00 18.6 7 Norte 21 Norte 0 1012.8 0.3 46
2019-04-14 13:00:00 19.1 9 Nordeste 15 Nordeste 0 1012.3 -0.1 44
2019-04-14 12:00:00 18.1 2 Sudeste 8 Sur 0 1012.5 -0.1 46
2019-04-14 11:00:00 16.4 5 Sudeste 9 Sudeste 0 1012.5 0 56
2019-04-14 10:00:00 13.7 8 Sudeste 13 Sudeste 0 1012.4 0.3 69
2019-04-14 09:00:00 11.3 8 Sudeste 13 Este 0 1012.6 -0.1 79
2019-04-14 08:00:00 10.6 0 Calma 15 Sudeste 0 1012.5 0.1 81
2019-04-14 07:00:00 10.4 8 Sudeste 11 Sudeste 0 1012.1 -0.2 84
2019-04-14 06:00:00 10.6 0 Calma 8 Este 0 1012.7 0.2 84
2019-04-14 05:00:00 10.5 6 Este 8 Este 0 1012.4 -0.4 85
2019-04-14 04:00:00 10.8 0 Calma 8 Este 0 1012.3 -1 82
2019-04-14 03:00:00 10.6 0 Calma 11 Este 0 1012.5 -1.1 81
2019-04-14 02:00:00 10.8 5 Sudeste 9 Sudeste 0 1012.8 -0.7 80
2019-04-14 01:00:00 11.1 0 Calma 9 Este 0 1013.3 -0.1 75
2019-04-14 00:00:00 11.4 6 Este 8 Este 0 1013.6 0.8 77
2019-04-13 23:00:00 12.4 0 Calma 9 Oeste 0 1013.5 1.1 75
2019-04-13 22:00:00 13.5 7 Oeste 11 Oeste 0 1013.4 1.2 70
2019-04-13 21:00:00 15 8 Oeste 17 Noroeste 0 1012.8 1.1 58
2019-04-13 20:00:00 17.2 10 Oeste 26 Noroeste 0 1012.4 0.7 47
2019-04-13 19:00:00 18.6 20 Noroeste 30 Noroeste 0 1012.2 0.1 42
2019-04-13 18:00:00 20.6 13 Oeste 24 Oeste 0 1011.7 -0.9 34
2019-04-13 17:00:00 21.3 14 Oeste 24 Oeste 0 1011.7 -1.6 35
2019-04-13 16:00:00 23.1 10 Noroeste 21 Norte 0 1012.1 -2.2 30
2019-04-13 15:00:00 22.4 4 Sudeste 26 Este 0 1012.6 -2.3 18
2019-04-13 14:00:00 21.3 7 Este 21 Sudeste 0 1013.3 -1.9 19
2019-04-13 13:00:00 19.3 13 Sudeste 22 Este 0 1014.3 -1.3 29
2019-04-13 12:00:00 16.3 12 Sudeste 21 Sudeste 0 1014.9 -1 42
2019-04-13 11:00:00 12.4 13 Sudeste 18 Sudeste 0 1015.2 -0.7 60
2019-04-13 10:00:00 8.6 13 Sudeste 18 Sudeste 0 1015.6 -0.1 74
2019-04-13 09:00:00 5.3 7 Sudeste 15 Este 0 1015.9 0.2 87
2019-04-13 08:00:00 2.8 6 Sudeste 13 Sudeste 0 1015.9 0.3 93
2019-04-13 07:00:00 3 6 Este 13 Sudeste 0 1015.7 -0.2 94
2019-04-13 06:00:00 3.8 4 Sur 9 Sudeste 0 1015.7 -0.7 93
2019-04-13 05:00:00 3.8 5 Sudeste 13 Sudeste 0 1015.6 -1.2 93
2019-04-13 04:00:00 4.3 6 Sudeste 11 Sudeste 0 1015.9 -1 93
2019-04-13 03:00:00 4.4 8 Este 15 Sudeste 0 1016.4 -0.4 93
2019-04-13 02:00:00 5.5 4 Sudeste 11 Sudeste 0 1016.8 -0.2 92
2019-04-13 01:00:00 5.8 5 Este 13 Sudeste 0 1016.9 0.2 90
2019-04-13 00:00:00 6.7 10 Este 13 Sudeste 0 1016.8 0.5 88
2019-04-12 23:00:00 8 5 Sudeste 13 Este 0 1017 0.7 82
2019-04-12 22:00:00 9.6 9 Este 13 Este 0 1016.7 0.6 75
2019-04-12 21:00:00 11.9 9 Este 17 Nordeste 0 1016.3 0.1 63
2019-04-12 20:00:00 13.8 10 Norte 21 Nordeste 0 1016.3 0 52
2019-04-12 19:00:00 14.6 12 Nordeste 26 Nordeste 0 1016.1 -0.9 53
2019-04-12 18:00:00 15.2 12 Norte 24 Norte 0 1016.2 -1.3 54
2019-04-12 17:00:00 14.7 11 Nordeste 26 Nordeste 0 1016.3 -1.5 56
2019-04-12 16:00:00 15.4 14 Nordeste 26 Norte 0 1017 -0.7 56
2019-04-12 15:00:00 15 11 Norte 26 Norte 0 1017.5 -0.4 59
2019-04-12 14:00:00 14.1 13 Norte 26 Norte 0 1017.8 -0.3 62
2019-04-12 13:00:00 13.6 12 Noroeste 22 Noroeste -- 1017.7 -0.3 68
2019-04-12 12:00:00 12.8 4 Norte 15 Noroeste -- 1017.9 0.1 74
2019-04-12 11:00:00 12 5 Oeste 9 Oeste 0 1018.1 0.3 78
2019-04-12 10:00:00 10.4 7 Este 11 Este 0 1018 0.5 88
2019-04-12 09:00:00 9.3 3 Este 11 Sudeste 0 1017.8 0.1 95
2019-04-12 08:00:00 8.9 5 Este 8 Este 0 1017.8 0.2 95
2019-04-12 07:00:00 8.9 5 Nordeste -- -- 0 1017.5 -0.2 96
2019-04-12 06:00:00 8.7 7 Este 9 Este 0 1017.7 -0.6 96
2019-04-12 05:00:00 8.6 5 Este 9 Este 0 1017.6 -1.1 96
2019-04-12 04:00:00 8.7 4 Sudeste 8 Sudeste 0 1017.7 -1 95
2019-04-12 03:00:00 8.7 4 Este 8 Este 0 1018.3 -0.4 95
2019-04-12 02:00:00 8.6 4 Sudeste 9 Oeste 0 1018.7 0 94
2019-04-12 01:00:00 9.2 9 Oeste 11 Oeste 0 1018.7 0.3 87
2019-04-12 00:00:00 10.3 8 Noroeste 13 Noroeste 0 1018.7 0.8 82
2019-04-11 23:00:00 10.8 7 Noroeste 13 Norte 0 1018.7 1.2 79
2019-04-11 22:00:00 11.1 10 Noroeste 17 Noroeste 0 1018.4 1 82
2019-04-11 21:00:00 10.5 9 Noroeste 18 Noroeste 0 1017.9 0.6 84
2019-04-11 20:00:00 11.7 15 Noroeste 30 Noroeste 0 1017.5 0.6 78
2019-04-11 19:00:00 12.5 17 Noroeste 26 Noroeste 0 1017.4 0.3 76
2019-04-11 18:00:00 12.5 17 Noroeste 30 Noroeste 0 1017.3 0.2 78
2019-04-11 17:00:00 12.1 12 Noroeste 24 Norte 0 1016.9 -0.1 83
2019-04-11 16:00:00 11 10 Noroeste 30 Noroeste 0 1017.1 0 90
2019-04-11 15:00:00 11.3 21 Noroeste 41 Noroeste 0 1017.1 0.2 88
2019-04-11 14:00:00 12 25 Noroeste 37 Noroeste 0.2 1017 0.3 84
2019-04-11 13:00:00 11.2 23 Noroeste 37 Norte 2.3 1017.1 0.6 90
2019-04-11 12:00:00 10.7 13 Noroeste 32 Noroeste 0.6 1016.9 0.7 90
2019-04-11 11:00:00 11.7 18 Noroeste 30 Noroeste 0.2 1016.7 0.6 79
2019-04-11 10:00:00 11 9 Oeste 21 Oeste 0 1016.5 0.7 81
2019-04-11 09:00:00 9.5 4 Noroeste 15 Noroeste 0 1016.2 0.3 98
2019-04-11 08:00:00 8.1 5 Este 9 Este 0 1016.1 0.3 99
2019-04-11 07:00:00 7.8 9 Sudeste 13 Nordeste 0.9 1015.8 0.2 98
2019-04-11 06:00:00 7.8 5 Este 8 Sudeste 0 1015.9 0.1 98
2019-04-11 05:00:00 8.8 3 Oeste 9 Este 0 1015.8 -0.1 98
2019-04-11 04:00:00 9.2 2 Nordeste 5 Nordeste 0 1015.6 -0.1 97
2019-04-11 03:00:00 9.1 5 Sur 11 Este 0.1 1015.8 0.1 96
2019-04-11 02:00:00 9.1 7 Este 17 Este 0.5 1015.9 0.2 95
2019-04-11 01:00:00 10 4 Sur 30 Este 3.2 1015.7 0.5 87
2019-04-11 00:00:00 10.5 17 Norte 32 Norte 0.4 1015.7 1.5 80
2019-04-10 23:00:00 10.4 6 Oeste 21 Noroeste 0 1015.7 2 90
2019-04-10 22:00:00 11.1 13 Noroeste 30 Norte 0.1 1015.2 1.9 90
2019-04-10 21:00:00 11.4 18 Noroeste 33 Noroeste 1.4 1014.2 1.3 88
2019-04-10 20:00:00 12.7 24 Noroeste 35 Noroeste 0 1013.7 1.2 76
2019-04-10 19:00:00 13.1 22 Noroeste 33 Norte 0 1013.3 1 73
2019-04-10 18:00:00 13.2 18 Noroeste 32 Noroeste 0 1012.9 0.8 73
2019-04-10 17:00:00 14.2 20 Noroeste 30 Norte 0 1012.5 0.9 67
2019-04-10 16:00:00 14.2 18 Noroeste 30 Noroeste 0 1012.3 0.9 68
2019-04-10 15:00:00 14 20 Norte 30 Norte 0 1012.1 0.8 66
2019-04-10 14:00:00 13.8 17 Norte 30 Norte 0 1011.6 0.3 68
2019-04-10 13:00:00 13.2 10 Norte 17 Noroeste 0 1011.4 0.6 70
2019-04-10 12:00:00 12.7 7 Oeste 18 Noroeste 0 1011.3 1 79
2019-04-10 11:00:00 9.2 3 Sudeste 15 Sudeste 1.7 1011.3 1.8 94
2019-04-10 10:00:00 9.2 9 Este 18 Nordeste 0 1010.8 2 91
2019-04-10 09:00:00 7.4 9 Este 15 Este 0 1010.3 1.7 96
2019-04-10 08:00:00 6.5 7 Este 11 Este 0 1009.5 0.9 97
2019-04-10 07:00:00 6.8 5 Este 8 Este 0 1008.8 0.2 97
2019-04-10 06:00:00 7.1 6 Este 11 Sudeste 0 1008.6 0.1 96
2019-04-10 05:00:00 7.6 9 Este 11 Este 0 1008.6 0.3 96
2019-04-10 04:00:00 7.5 5 Este 9 Este 0 1008.6 0.3 96
2019-04-10 03:00:00 7.1 7 Sudeste 11 Sudeste 0 1008.5 0.2 97
2019-04-10 02:00:00 7 6 Este 9 Sur 0 1008.3 0 97
2019-04-10 01:00:00 7.2 4 Sudeste 8 Sudeste 0 1008.3 0.2 96
2019-04-10 00:00:00 7.9 4 Este 11 Este 0 1008.3 0.7 96
2019-04-09 23:00:00 8.8 2 Sudeste 13 Este 0 1008.3 0.5 93
2019-04-09 22:00:00 9.2 8 Este 15 Nordeste 0 1008.1 0.4 93
2019-04-09 21:00:00 9.6 11 Sudeste 17 Sudeste 0 1007.6 0.4 92
2019-04-09 20:00:00 9.9 7 Oeste 17 Este 2.6 1007.8 1.7 95
2019-04-09 19:00:00 9.8 8 Oeste 33 Noroeste 9 1007.7 2.2 94
2019-04-09 18:00:00 10.2 31 Oeste 50 Noroeste 1.8 1007.2 2.3 86
2019-04-09 17:00:00 12.9 19 Noroeste 35 Noroeste 0 1006.1 1.7 81
2019-04-09 16:00:00 14.3 24 Noroeste 39 Noroeste 0 1005.5 0.6 75
2019-04-09 15:00:00 17 24 Noroeste 39 Noroeste 0 1004.9 -0.5 50
2019-04-09 14:00:00 18.2 8 Sur 32 Sudoeste 0 1004.4 -1 38
2019-04-09 13:00:00 17.3 18 Oeste 41 Sudoeste 0 1004.9 -0.6 43
2019-04-09 12:00:00 16 24 Sudoeste 45 Sudoeste 0 1005.4 0 46
2019-04-09 11:00:00 14.9 22 Sudoeste 42 Sudoeste 0 1005.4 0.1 49
2019-04-09 10:00:00 13.9 19 Sudoeste 39 Oeste 0 1005.5 0.2 51
2019-04-09 09:00:00 12.9 14 Sudoeste 42 Sudoeste 0 1005.4 0.1 53
2019-04-09 08:00:00 11.4 10 Sur 26 Sudoeste 0 1005.3 -0.4 58
2019-04-09 07:00:00 8.7 8 Nordeste 17 Nordeste 0 1005.3 -0.8 72
2019-04-09 06:00:00 7.3 12 Sudeste 21 Sudeste 0 1005.3 -1.3 81
2019-04-09 05:00:00 8.1 12 Este 21 Este 0 1005.7 -1.2 79
2019-04-09 04:00:00 6.2 8 Este 15 Este 0 1006.1 -1 91
2019-04-09 03:00:00 6.5 3 Sudeste 13 Sudeste 0 1006.6 -0.6 91
2019-04-09 02:00:00 6.8 7 Este 17 Sudeste 0 1006.9 -0.7 90
2019-04-09 01:00:00 7.1 10 Sudeste 13 Sudeste 0 1007.1 -0.9 91
2019-04-09 00:00:00 8.2 5 Sur 17 Sudeste 0 1007.2 -0.4 90
2019-04-08 23:00:00 9.2 11 Sudeste 15 Sudeste 0 1007.6 0.1 87
2019-04-08 22:00:00 9.9 3 Sudeste 9 Este 0 1008 0.3 85
2019-04-08 21:00:00 11.7 5 Sudeste 11 Este 0 1007.6 -0.4 77
2019-04-08 20:00:00 12.8 8 Sudeste 17 Sudeste 0 1007.5 -0.6 70
2019-04-08 19:00:00 14.3 11 Sudeste 24 Nordeste 0 1007.7 -0.8 63
2019-04-08 18:00:00 13.8 11 Norte 22 Norte 0 1008 -0.5 63
2019-04-08 17:00:00 14.4 8 Nordeste 18 Norte 0 1008.1 -0.4 58
2019-04-08 16:00:00 14.2 8 Norte 26 Nordeste 0 1008.5 0.1 57
2019-04-08 15:00:00 14.4 5 Norte 21 Noroeste 0 1008.5 0.2 57
2019-04-08 14:00:00 14.4 8 Norte 22 Noroeste 0 1008.5 0.9 68
2019-04-08 13:00:00 13.7 10 Noroeste 21 Noroeste 0 1008.4 1.3 77
2019-04-08 12:00:00 12.4 10 Noroeste 21 Noroeste 0.1 1008.3 1.6 89
2019-04-08 11:00:00 12.8 14 Noroeste 30 Noroeste 0 1007.6 2.5 79
2019-04-08 10:00:00 12.9 5 Oeste 22 Norte 0 1007.1 2.8 80
2019-04-08 09:00:00 12.2 11 Noroeste 28 Noroeste 0 1006.7 2.8 82
2019-04-08 08:00:00 12.9 2 Nordeste 11 Sur 0 1005.1 0.9 68
2019-04-08 07:00:00 12.9 6 Sudeste 15 Sudeste 0 1004.3 0.3 66
2019-04-08 06:00:00 12.8 7 Sudeste 17 Oeste 0 1003.9 -0.2 65
2019-04-08 05:00:00 13.7 9 Sudoeste 24 Sudoeste 0 1004.2 -0.2 58
2019-04-08 04:00:00 12.7 6 Norte 32 Sur 0 1004 -0.7 57
2019-04-08 03:00:00 13.3 15 Sudoeste 35 Sudoeste 0 1004.1 -1.1 54
2019-04-08 02:00:00 13 7 Sur 35 Sur 0 1004.4 -1.4 54
2019-04-08 01:00:00 13.4 16 Sur 30 Sudoeste 0 1004.7 -0.7 53
2019-04-08 00:00:00 14 10 Sur 41 Sudoeste 0 1005.2 -0.1 49
2019-04-07 23:00:00 14.1 18 Sudoeste 33 Oeste 0 1005.8 0.6 50
2019-04-07 22:00:00 12.4 6 Este 9 Este 0 1005.4 0.2 73
2019-04-07 21:00:00 13.1 0 Calma 9 Noroeste 0 1005.3 0.1 70
2019-04-07 20:00:00 13.6 8 Oeste 13 Noroeste 0 1005.2 -0.6 67
2019-04-07 19:00:00 15.6 9 Nordeste 26 Nordeste 0 1005.2 -1 57
2019-04-07 18:00:00 16.4 6 Este 17 Este 0 1005.2 -1.3 50
2019-04-07 17:00:00 15.9 4 Oeste 13 Oeste 0 1005.8 -0.6 49
2019-04-07 16:00:00 14.9 9 Oeste 21 Noroeste 0 1006.2 -0.1 52
2019-04-07 15:00:00 14.1 14 Noroeste 22 Noroeste 0 1006.5 0.7 57
2019-04-07 14:00:00 13.4 13 Noroeste 26 Noroeste 0 1006.4 1.1 56
2019-04-07 13:00:00 13.1 18 Noroeste 30 Oeste 0 1006.3 1.7 58
2019-04-07 12:00:00 11.9 20 Noroeste 30 Noroeste 0 1005.8 2 63
2019-04-07 11:00:00 11.2 14 Oeste 24 Oeste 0 1005.3 2.4 64
2019-04-07 10:00:00 9.9 8 Oeste 18 Sudoeste 0 1004.6 2.5 72
2019-04-07 09:00:00 8.8 4 Oeste 11 Oeste 0 1003.8 2.3 78
2019-04-07 08:00:00 8.4 3 Oeste 9 Oeste 0 1002.9 2 81
2019-04-07 07:00:00 7.7 3 Norte 8 Nordeste 0 1002.1 1.7 91
2019-04-07 06:00:00 7.4 5 Este 8 Este 0 1001.5 1.4 97
2019-04-07 05:00:00 7.2 6 Sudeste 8 Sudeste 0 1000.9 1.2 97
2019-04-07 04:00:00 7.4 0 Calma 8 Nordeste 0 1000.4 0.8 96
2019-04-07 03:00:00 7.6 4 Sudeste 9 Este 0 1000.1 0.9 95
2019-04-07 02:00:00 7.6 8 Este 9 Este 0 999.7 1 95
2019-04-07 01:00:00 7.5 5 Sudeste 9 Sudeste 0.2 999.6 2.1 94
2019-04-07 00:00:00 7.8 4 Norte 28 Noroeste 1.5 999.2 2.4 89
2019-04-06 23:00:00 8.6 12 Norte 24 Norte 0 998.7 2.6 88
2019-04-06 22:00:00 8.5 4 Sur 15 Nordeste 0 997.5 2.6 92
2019-04-06 21:00:00 9.3 4 Sudeste 17 Oeste 0.1 996.8 3.8 85
2019-04-06 20:00:00 9.8 3 Sur 26 Noroeste 1 996.1 3.6 83
2019-04-06 19:00:00 11.5 12 Noroeste 26 Sudoeste 3.1 994.9 2.2 73
2019-04-06 18:00:00 14.4 19 Nordeste 30 Norte 0 993 0 54
2019-04-06 17:00:00 17.3 18 Oeste 41 Oeste 0 992.5 -0.8 33
2019-04-06 16:00:00 17.1 12 Sudoeste 37 Oeste 0 992.7 -0.9 35
2019-04-06 15:00:00 15.8 15 Sudoeste 37 Sudoeste 0 993 -1.1 38
2019-04-06 14:00:00 15.1 16 Oeste 37 Oeste 0 993.3 -1 42
2019-04-06 13:00:00 14.5 23 Oeste 45 Sur 0 993.6 -0.9 43
2019-04-06 12:00:00 13.9 14 Oeste 39 Sudoeste 0 994.1 -0.4 46
2019-04-06 11:00:00 11.8 13 Sudoeste 39 Oeste 0 994.3 -0.1 50
2019-04-06 10:00:00 10.6 16 Oeste 28 Sudoeste 0 994.5 0 57
2019-04-06 09:00:00 7.8 10 Sudoeste 21 Nordeste 0 994.5 -0.1 75
2019-04-06 08:00:00 6.4 10 Nordeste 13 Este 0 994.4 -0.4 85
2019-04-06 07:00:00 6 6 Nordeste 9 Este 0 994.5 -0.4 96
2019-04-06 06:00:00 6.2 6 Este 9 Este 0 994.6 -0.4 96
2019-04-06 05:00:00 7 6 Este 13 Sudeste 0 994.8 -0.3 96
2019-04-06 04:00:00 7.1 6 Este 13 Este 0 994.9 -0.1 96
2019-04-06 03:00:00 7.7 7 Este 11 Este 0 995 0.2 95
2019-04-06 02:00:00 7.9 6 Este 8 Este 0 995.1 1.1 95
2019-04-06 01:00:00 8.1 5 Sudeste 8 Sudeste 0 995 1.1 96
2019-04-06 00:00:00 8 7 Oeste 13 Este 0 994.8 1.4 95
2019-04-05 23:00:00 9 8 Este 15 Este 0 994 0.8 94
2019-04-05 22:00:00 9.3 9 Sudeste 15 Este 0 993.9 0.8 93
2019-04-05 21:00:00 10 6 Este 15 Nordeste 0 993.4 0.7 90
2019-04-05 20:00:00 10.5 3 Norte 13 Este 0 993.2 1 89
2019-04-05 19:00:00 10.8 6 Este 32 Nordeste 1.6 993.1 0.8 89
2019-04-05 18:00:00 11.8 22 Norte 30 Norte 0 992.7 0.3 77
2019-04-05 17:00:00 13.5 12 Noroeste 21 Norte 0 992.2 -0.2 69
2019-04-05 16:00:00 13.5 15 Noroeste 22 Noroeste 0 992.3 -0.4 67
2019-04-05 15:00:00 14.4 12 Noroeste 26 Sudoeste 0 992.4 -0.3 58
2019-04-05 14:00:00 14.6 10 Sur 30 Sur 0 992.4 -0.3 46
2019-04-05 13:00:00 14.8 17 Sudoeste 35 Sur 0 992.7 0.3 47
2019-04-05 12:00:00 13.7 18 Sur 30 Sur 0 992.7 0.3 49
2019-04-05 11:00:00 12.6 17 Sur 32 Sur 0 992.7 0.3 51
2019-04-05 10:00:00 12.4 17 Sur 30 Sur 0 992.4 0.5 50
2019-04-05 09:00:00 12.2 12 Sur 24 Sur 0 992.4 0.8 48
2019-04-05 08:00:00 12 17 Sur 30 Sudoeste 0 992.4 0.1 48
2019-04-05 07:00:00 11.3 10 Sur 22 Sur 0 991.9 -0.7 52
2019-04-05 06:00:00 11.7 10 Sur 18 Sur 0 991.6 -1.5 50
2019-04-05 05:00:00 11.8 9 Sur 32 Sur 0 992.3 -1.4 51
2019-04-05 04:00:00 12 15 Sur 28 Sur 0 992.6 -1.8 50
2019-04-05 03:00:00 11.6 10 Sur 32 Sur 0 993.1 -1.7 53
2019-04-05 02:00:00 11.5 17 Sur 35 Sur 0 993.7 -1 55
2019-04-05 01:00:00 11.4 21 Sur 35 Sur 0 994.4 -0.1 54
2019-04-05 00:00:00 12.1 11 Sur 39 Sur 0 994.8 0.9 48
2019-04-04 23:00:00 13.5 10 Sudoeste 35 Oeste 0 994.7 0.5 41
2019-04-04 22:00:00 14.6 19 Sudoeste 42 Oeste 0 994.5 0.5 35
2019-04-04 21:00:00 15 12 Oeste 45 Sudoeste 0 993.9 -0.1 30
2019-04-04 20:00:00 15.9 22 Sudoeste 37 Sudoeste 0 994.2 -0.1 26
2019-04-04 19:00:00 16 9 Oeste 32 Sur 0 994 -1.6 27
2019-04-04 18:00:00 16.6 14 Oeste 33 Oeste 0 994 -3.2 25
2019-04-04 17:00:00 16.7 11 Sudoeste 30 Sudoeste 0 994.3 -4.2 27
2019-04-04 16:00:00 15.9 10 Sur 30 Sur 0 995.6 -4 32
2019-04-04 15:00:00 14.9 7 Sur 30 Oeste 0 997.2 -3.1 37
2019-04-04 14:00:00 13.3 16 Sudoeste 32 Oeste 0 998.5 -1.8 40
2019-04-04 13:00:00 11.4 12 Oeste 28 Sudoeste 0 999.6 -1.1 51
2019-04-04 12:00:00 10.1 11 Sudoeste 22 Sudoeste 0 1000.3 -0.6 63
2019-04-04 11:00:00 7.6 8 Sur 13 Sur 0 1000.3 -0.5 80
2019-04-04 10:00:00 5.7 9 Sudeste 15 Este 0.1 1000.7 0.4 85
2019-04-04 09:00:00 5 7 Sudoeste 21 Oeste 1 1000.9 0.3 86
2019-04-04 08:00:00 5 15 Oeste 33 Oeste 0.5 1000.8 0.1 83
2019-04-04 07:00:00 4.8 10 Oeste 22 Oeste 0 1000.3 -0.6 82
2019-04-04 06:00:00 4.5 13 Oeste 37 Oeste 1.6 1000.6 -0.7 86
2019-04-04 05:00:00 5.1 9 Oeste 22 Norte 0.9 1000.7 -1.1 82
2019-04-04 04:00:00 5 4 Sudeste 11 Este 0 1000.9 -1.4 92
2019-04-04 03:00:00 5.5 7 Oeste 18 Sudoeste 0.6 1001.3 -1.7 83
2019-04-04 02:00:00 5.6 8 Oeste 24 Sudoeste 0 1001.8 -1.3 79
2019-04-04 01:00:00 5.5 12 Sudoeste 32 Sudoeste 0.3 1002.3 -0.8 80
2019-04-04 00:00:00 5.7 18 Oeste 30 Oeste 0 1003 -0.7 78
2019-04-03 23:00:00 5.3 14 Oeste 32 Oeste 0 1003.1 0.1 82
2019-04-03 22:00:00 5.1 13 Oeste 32 Oeste 0 1003.1 -0.5 79
2019-04-03 21:00:00 3.9 16 Oeste 55 Norte 1.7 1003.7 0.8 92
2019-04-03 20:00:00 6.7 12 Oeste 58 Noroeste 0.9 1003 -0.5 77
2019-04-03 19:00:00 7.4 36 Oeste 59 Oeste 0.2 1003.6 -0.1 69
2019-04-03 18:00:00 9 21 Oeste 39 Oeste 0 1002.9 -2 64
2019-04-03 17:00:00 9.2 22 Oeste 42 Oeste 0.2 1003.5 -1.4 71
2019-04-03 16:00:00 8 20 Oeste 41 Oeste 0.1 1003.7 -0.9 75
2019-04-03 15:00:00 5.4 16 Oeste 61 Noroeste 0.9 1004.9 -0.4 91
2019-04-03 14:00:00 6.3 21 Noroeste 63 Noroeste 1.4 1004.9 -1.4 86
2019-04-03 13:00:00 9 11 Sudoeste 42 Noroeste 1.2 1004.6 -1 76
2019-04-03 12:00:00 9.4 16 Oeste 45 Noroeste 0 1005.3 -0.7 71
2019-04-03 11:00:00 7.9 22 Oeste 50 Oeste 0.2 1006.3 0.1 76
2019-04-03 10:00:00 7.7 16 Oeste 26 Oeste 0.1 1005.6 -0.8 76
2019-04-03 09:00:00 7.3 12 Sudoeste 28 Noroeste 0.4 1006 -0.4 85
2019-04-03 08:00:00 7.3 13 Oeste 37 Noroeste 0.1 1006.2 -1 82
2019-04-03 07:00:00 8.2 25 Oeste 41 Noroeste 0 1006.4 -1.4 79
2019-04-03 06:00:00 8.9 18 Noroeste 35 Noroeste 0 1006.4 -2.1 83
2019-04-03 05:00:00 9.2 13 Oeste 35 Noroeste 0 1007.2 -2.4 81
2019-04-03 04:00:00 8.9 9 Noroeste 18 Norte 0.1 1007.8 -2.5 89
2019-04-03 03:00:00 9.4 6 Noroeste 18 Oeste 0 1008.5 -2.3 82
2019-04-03 02:00:00 9.3 13 Oeste 32 Noroeste 0.5 1009.6 -1.4 85
2019-04-03 01:00:00 9.8 12 Noroeste 22 Noroeste 0 1010.3 -0.7 85
2019-04-03 00:00:00 9.9 13 Noroeste 22 Noroeste 0 1010.8 0.1 87
2019-04-02 23:00:00 10 8 Noroeste 32 Norte 0.4 1011 0.3 93
2019-04-02 22:00:00 10.7 10 Oeste 30 Noroeste 0.1 1011 0.3 88
2019-04-02 21:00:00 10.9 6 Noroeste 30 Noroeste 0.2 1010.7 -0.4 92
2019-04-02 20:00:00 12.1 11 Noroeste 39 Noroeste 0 1010.7 -0.6 84
2019-04-02 19:00:00 13 21 Noroeste 37 Norte 0 1010.7 -1 75
2019-04-02 18:00:00 13.6 29 Noroeste 41 Norte 0 1011.1 -1 68
2019-04-02 17:00:00 15.5 21 Noroeste 39 Norte 0 1011.3 -1.3 61
2019-04-02 16:00:00 14.6 20 Noroeste 42 Noroeste 0 1011.7 -1.4 65
2019-04-02 15:00:00 14.6 21 Noroeste 35 Noroeste 0 1012.1 -1.1 67
2019-04-02 14:00:00 15.3 20 Noroeste 35 Norte 0 1012.6 -0.6 69
2019-04-02 13:00:00 14.3 15 Noroeste 37 Norte 0 1013.1 0.2 72
2019-04-02 12:00:00 14.3 7 Oeste 17 Oeste 0 1013.2 0.6 73
2019-04-02 11:00:00 11.6 4 Sur 8 Nordeste 0 1013.2 1.1 85
2019-04-02 10:00:00 10.2 6 Nordeste 13 Nordeste 0 1012.9 1.3 90
2019-04-02 09:00:00 8.5 5 Este 13 Este 0 1012.6 1.2 94
2019-04-02 08:00:00 7.9 6 Sudeste 13 Este 0 1012.1 0.7 95
2019-04-02 07:00:00 8.5 6 Este 9 Este 0 1011.6 0 96
2019-04-02 06:00:00 9.3 5 Este -- -- 0 1011.4 -0.4 95
2019-04-02 05:00:00 9.5 6 Este 9 Este 0 1011.4 -0.5 92
2019-04-02 04:00:00 11.1 3 Este 5 Este 0 1011.6 -0.6 89
2019-04-02 03:00:00 11.6 2 Este -- -- 0 1011.8 -0.3 86
2019-04-02 02:00:00 12.8 0 Calma 9 Noroeste 0 1011.9 0.2 85
2019-04-02 01:00:00 13.1 5 Noroeste 11 Noroeste 0 1012.2 1 83
2019-04-02 00:00:00 13.2 9 Noroeste 21 Noroeste 0 1012.1 1.6 86
2019-04-01 23:00:00 13.5 12 Noroeste 22 Noroeste 0 1011.7 1.7 87
2019-04-01 22:00:00 14.1 4 Noroeste 9 Noroeste 0 1011.2 1.8 74
2019-04-01 21:00:00 14.4 8 Noroeste 13 Noroeste 0 1010.5 1.2 73
2019-04-01 20:00:00 15.6 7 Nordeste 11 Nordeste 0 1010 0.7 65
2019-04-01 19:00:00 16.1 7 Este 17 Nordeste 0 1009.4 -0.1 63
2019-04-01 18:00:00 16.9 9 Este 32 Nordeste 0 1009.3 -0.7 58
2019-04-01 17:00:00 17.5 9 Este 22 Nordeste 0 1009.3 -1 54
2019-04-01 16:00:00 17.3 6 Sudeste 17 Sur 0 1009.5 -1.1 53
2019-04-01 15:00:00 17.3 0 Calma 15 Norte 0 1010 -0.8 51
2019-04-01 14:00:00 16.5 2 Sudoeste 11 Sudoeste 0 1010.3 -0.6 53
2019-04-01 13:00:00 15.8 10 Sudeste 28 Este 0 1010.6 -0.1 58
2019-04-01 12:00:00 17.1 14 Este 22 Este 0 1010.8 0.4 56
2019-04-01 11:00:00 15.2 11 Sudeste 26 Este 0 1010.9 0.8 63
2019-04-01 10:00:00 12.4 12 Sudeste 17 Sudeste 0 1010.7 0.8 77
2019-04-01 09:00:00 11.4 11 Sudeste 21 Este 0 1010.4 0.6 83
2019-04-01 08:00:00 10.8 9 Sudeste 17 Este 0 1010.1 0.3 86
2019-04-01 07:00:00 11.5 13 Este 18 Este 0 1009.9 -0.2 80
2019-04-01 06:00:00 11.6 14 Sudeste 28 Este 0 1009.8 -0.4 80
2019-04-01 05:00:00 12.5 18 Este 32 Este 0 1009.8 -0.4 70
2019-04-01 04:00:00 13.4 19 Este 28 Sudeste 0 1010.1 -0.2 59
2019-04-01 03:00:00 11.1 7 Sudeste 15 Sudeste 0 1010.2 0.1 69
2019-04-01 02:00:00 11.1 0 Calma 5 Este 0 1010.2 0.1 67
2019-04-01 01:00:00 11.2 5 Este 8 Este 0 1010.3 0.6 65
2019-04-01 00:00:00 11.4 4 Sudeste 5 Este 0 1010.1 0.8 62
2019-03-31 23:00:00 11.9 0 Calma 5 Sudeste 0 1010.1 1 59
2019-03-31 22:00:00 13.3 4 Este 24 Este 0 1009.7 0.9 50
2019-03-31 21:00:00 14.7 11 Este 24 Este 0 1009.3 1 45
2019-03-31 20:00:00 16.5 13 Este 22 Sudeste 0 1009.1 0.8 41
2019-03-31 19:00:00 18.5 14 Este 35 Nordeste 0 1008.8 0.3 39
2019-03-31 18:00:00 20.2 17 Este 37 Nordeste 0 1008.3 -1.1 35
2019-03-31 17:00:00 21.9 23 Nordeste 42 Nordeste 0 1008.3 -1.9 26
2019-03-31 16:00:00 22.4 15 Este 42 Este 0 1008.5 -2.4 27
2019-03-31 15:00:00 22.5 13 Sudeste 28 Este 0 1009.4 -2.1 32
2019-03-31 14:00:00 21.5 11 Este 18 Este 0 1010.2 -1.4 35
2019-03-31 13:00:00 19.8 6 Nordeste 17 Nordeste 0 1010.9 -0.7 39
2019-03-31 12:00:00 18.4 5 Este 15 Sur 0 1011.5 -0.1 43
2019-03-31 11:00:00 15.6 0 Calma 9 Sudeste 0 1011.6 0.1 57
2019-03-31 10:00:00 11 4 Este 13 Este 0 1011.6 0.3 73
2019-03-31 09:00:00 7.7 8 Este 13 Nordeste 0 1011.6 -0.1 83
2019-03-31 08:00:00 6.3 3 Sudeste 9 Sudeste 0 1011.5 -0.7 87
2019-03-31 07:00:00 6.7 0 Calma 9 Este 0 1011.3 -1.5 88
2019-03-31 06:00:00 6.6 3 Sudeste 11 Este 0 1011.7 -1.4 92
2019-03-31 05:00:00 7.6 6 Sudeste 11 Este 0 1012.2 -1.5 93
2019-03-31 03:00:00 8 8 Este -- -- 0 1013.1 -1 94
2019-03-31 01:00:00 8.3 5 Sudeste 11 Este 0 1013.7 -0.4 93
2019-03-31 00:00:00 9.3 6 Este 11 Este 0 1014 0.2 92
2019-03-30 23:00:00 10.2 5 Sudeste 11 Este 0 1014.1 1.1 89
2019-03-30 22:00:00 11.4 5 Este 11 Este 0 1014.1 1.6 86
2019-03-30 21:00:00 12.6 0 Calma 11 Noroeste 0 1013.8 1.8 80
2019-03-30 20:00:00 13.6 10 Oeste 26 Noroeste 0 1013 1.3 76
2019-03-30 19:00:00 15.1 18 Noroeste 28 Noroeste 0 1012.5 0.8 75
2019-03-30 18:00:00 16.2 17 Oeste 24 Oeste 0 1012 -0.3 68
2019-03-30 17:00:00 19.3 18 Oeste 26 Oeste 0 1011.7 -1.4 53
2019-03-30 16:00:00 23.7 5 Sur 18 Oeste 0 1011.7 -2 24
2019-03-30 15:00:00 23.4 10 Sur 26 Sur 0 1012.3 -2.3 26
2019-03-30 14:00:00 22.3 12 Sur 30 Sur 0 1013.1 -2 31
2019-03-30 13:00:00 21.2 13 Sur 32 Sur 0 1013.7 -1.7 32
2019-03-30 12:00:00 19.7 16 Sur 35 Sur 0 1014.6 -0.9 33
2019-03-30 11:00:00 18.1 20 Sur 41 Sudoeste 0 1015.1 -0.2 35
2019-03-30 10:00:00 16.4 16 Sudeste 32 Sudeste 0 1015.4 0.4 40
2019-03-30 09:00:00 14.7 18 Sudeste 35 Sudeste 0 1015.5 0.7 43
2019-03-30 08:00:00 13.1 24 Este 39 Sudeste 0 1015.3 0.6 45
2019-03-30 07:00:00 12.5 19 Sudeste 32 Sudeste 0 1015 0.3 46
2019-03-30 06:00:00 13.4 15 Sudeste 33 Este 0 1014.8 0.1 43
2019-03-30 05:00:00 14.8 16 Sur 28 Sur 0 1014.7 -0.3 39
2019-03-30 04:00:00 14.7 7 Este 37 Sur 0 1014.7 -0.4 38
2019-03-30 03:00:00 16.2 21 Sur 33 Sur 0 1014.7 -0.7 34
2019-03-30 02:00:00 16.2 17 Sur 42 Sur 0 1015 -0.9 37
2019-03-30 01:00:00 9.9 8 Sudoeste 24 Sur 0 1015.1 -1.1 82
2019-03-30 00:00:00 9 5 Oeste 11 Noroeste 0 1015.4 -0.8 95
2019-03-29 23:00:00 9.5 0 Calma 9 Este 0 1015.9 0.1 91
2019-03-29 22:00:00 10.5 2 Este 8 Este 0 1016.2 0.9 90
2019-03-29 21:00:00 11.8 5 Noroeste 13 Noroeste 0 1016.2 1.5 88
2019-03-29 20:00:00 12.7 9 Noroeste 18 Noroeste 0 1015.8 1.2 85
2019-03-29 19:00:00 13.9 17 Noroeste 28 Noroeste 0 1015.3 0.4 78
2019-03-29 18:00:00 16.8 20 Noroeste 26 Noroeste 0 1014.7 -1.1 58
2019-03-29 17:00:00 19.3 17 Noroeste 26 Noroeste 0 1014.6 -2.1 42
2019-03-29 16:00:00 21 17 Oeste 28 Sur 0 1014.9 -2.7 38
2019-03-29 15:00:00 22.4 13 Sudoeste 30 Sur 0 1015.8 -2.8 25
2019-03-29 14:00:00 21.4 14 Sur 30 Sur 0 1016.7 -2.9 27
2019-03-29 13:00:00 19.9 12 Sur 28 Sudoeste 0 1017.6 -2.5 32
2019-03-29 12:00:00 18.1 12 Sudeste 26 Sudeste 0 1018.6 -2.1 40
2019-03-29 11:00:00 15.8 15 Sudeste 30 Sudeste 0 1019.6 -1.6 48
2019-03-29 10:00:00 12.3 4 Nordeste 15 Este 0 1020.1 -1.2 66
2019-03-29 09:00:00 8.4 4 Sudeste 13 Sudeste 0 1020.7 -0.7 81
2019-03-29 08:00:00 4.6 5 Este 9 Este 0 1021.2 -0.4 91
2019-03-29 07:00:00 3.9 7 Este 13 Este 0 1021.3 -0.6 94
2019-03-29 06:00:00 3.7 6 Este 9 Este 0 1021.4 -1.2 95
2019-03-29 05:00:00 4.2 5 Este 11 Sudeste 0 1021.6 -1.4 95
2019-03-29 04:00:00 4.2 9 Este 11 Este 0 1021.9 -1.7 95
2019-03-29 03:00:00 4.5 9 Este 9 Este 0 1022.6 -1.4 94
2019-03-29 02:00:00 -- 8 Este 11 Este 0 1023 -1.4 --
2019-03-29 01:00:00 5.7 7 Este 11 Este 0 1023.6 -1 93
2019-03-29 00:00:00 6.2 7 Este 9 Sudeste 0 1024 -0.6 91
2019-03-28 23:00:00 7.2 6 Este 13 Este 0 1024.4 0 89
2019-03-28 22:00:00 8.4 7 Este -- -- 0 1024.6 0.5 85
2019-03-28 21:00:00 9.5 4 Oeste 13 Norte 0 1024.6 0.6 81
2019-03-28 20:00:00 10.9 10 Norte 17 Norte 0 1024.4 0.4 75
2019-03-28 19:00:00 12.7 6 Norte 22 Norte 0 1024.1 -0.4 64
2019-03-28 18:00:00 13.8 14 Norte 24 Norte 0 1024 -0.9 59
2019-03-28 17:00:00 14.7 16 Norte 28 Norte 0 1024 -1.5 57
2019-03-28 16:00:00 15 16 Norte 33 Noroeste 0 1024.5 -1.6 58
2019-03-28 15:00:00 14.7 18 Noroeste 32 Noroeste 0 1024.9 -1.7 63
2019-03-28 14:00:00 14.1 14 Noroeste 30 Noroeste 0 1025.5 -1.5 63
2019-03-28 13:00:00 13.8 16 Noroeste 28 Norte 0 1026.1 -1 65
2019-03-28 12:00:00 13.8 14 Noroeste 24 Noroeste 0 1026.6 -0.6 66
2019-03-28 11:00:00 12.9 10 Noroeste 17 Noroeste 0 1027 -0.1 69
2019-03-28 10:00:00 11.4 2 Nordeste 8 Este 0 1027.1 0.4 76
2019-03-28 09:00:00 7.8 3 Este 13 Este 0 1027.2 0.9 88
2019-03-28 08:00:00 4.6 3 Sudeste 15 Este 0 1027.1 0.8 95
2019-03-28 07:00:00 4.1 6 Sudeste 13 Este 0 1026.7 0.4 95
2019-03-28 06:00:00 4 4 Sur 11 Este 0 1026.3 -0.1 94
2019-03-28 05:00:00 4.4 5 Sudeste 9 Sudeste 0 1026.3 -0.3 93
2019-03-28 04:00:00 4.8 6 Este 13 Este 0 1026.3 -0.6 93
2019-03-28 03:00:00 4.9 6 Este 9 Este 0 1026.4 -0.6 92
2019-03-28 02:00:00 5.3 8 Este 11 Este 0 1026.6 -0.4 91
2019-03-28 01:00:00 5.9 6 Este -- -- 0 1026.9 -0.1 88
2019-03-28 00:00:00 6.9 4 Sudeste 9 Este 0 1027 0.1 85
2019-03-27 23:00:00 7.6 5 Sudeste 11 Este 0 1027 0.7 82
2019-03-27 22:00:00 8.6 5 Sudeste 8 Sur 0 1027 1.2 77
2019-03-27 21:00:00 9.5 6 Oeste -- -- 0 1026.9 1.6 74
2019-03-27 20:00:00 10 7 Noroeste 22 Norte 0 1026.3 1.2 71
2019-03-27 19:00:00 11 12 Norte 22 Norte 0 1025.8 0.8 67
2019-03-27 18:00:00 12.4 17 Norte 28 Noroeste 0 1025.3 0.3 58
2019-03-27 17:00:00 13.2 18 Noroeste 32 Norte 0 1025.1 -0.1 59
2019-03-27 16:00:00 14 21 Noroeste 32 Noroeste 0 1025 -0.3 57
2019-03-27 15:00:00 14.4 19 Noroeste 32 Norte 0 1025 -0.5 53
2019-03-27 14:00:00 14.6 18 Norte 33 Norte 0 1025.2 -0.3 49
2019-03-27 13:00:00 14.6 10 Noroeste 26 Norte 0 1025.3 -0.2 50
2019-03-27 12:00:00 13.7 10 Norte 18 Norte 0 1025.5 0.5 53
2019-03-27 11:00:00 12.1 8 Oeste 17 Oeste 0 1025.5 0.6 61
2019-03-27 10:00:00 9.4 4 Nordeste 11 Sudeste 0 1025.5 1.2 74
2019-03-27 09:00:00 6.5 7 Sudeste 13 Este 0 1025 1 86
2019-03-27 08:00:00 3.3 4 Sudeste 15 Este 0 1024.9 1 93
2019-03-27 07:00:00 2.5 7 Este 11 Sudeste 0 1024.3 0.5 94
2019-03-27 06:00:00 3 -- -- -- -- 0 1024 -0.2 94
2019-03-27 05:00:00 3 8 Este 9 Este 0 1023.9 -0.4 93
2019-03-27 04:00:00 3.8 3 Este 11 Este 0 1023.8 -0.7 92
2019-03-27 03:00:00 4.3 7 Este 9 Este 0 1024.2 -0.3 91
2019-03-27 02:00:00 4.8 8 Este 11 Este 0 1024.3 -0.1 89
2019-03-27 01:00:00 5.8 6 Este 11 Este 0 1024.5 0.3 87
2019-03-27 00:00:00 6.5 6 Sudeste 11 Este 0 1024.5 0.2 84